Springbok, South Africa
Current Conditions -  °F | °C
As of 11:47 AM on Friday 24 Oct 2014 (Local Time) from FAUP Reporting Station
Clear Clear  
Wind Chill: 81°   Ceiling: Unl
Heat Index: 81°   Visibility: 6mi
Dew Point: 43°   Wind: 3mph
Humidity: 26%   Direction: 90°E
Pressure: 29.94"   Gusts: NA
Location:  29.67°S, 17.88°E
Report Text: FAUP 240947Z 09003KT CAVOK 27/06 Q1014 NOSIG
Loading
Personal Weather Stations






























Interactive Weather Map
Tropical Storm Tracking
New forecast layout! Learn more

10-Day Weather Forecast

Advertisements
Track Severe Weather on mobile